Terminal Aerodrome Forecast
Issued by NWS

Current Version | Previous Version | Text Only | Print | Product List | Glossary On
Versions: 1 2 3 4 5 6 7 8 9 10 11 12 13 14 15 16 17 18 19 20 21 22 23 24 25 26 27 28 29 30 31
000
FTUS41 KOKX 051134
TAFGON
TAF
KGON 051134Z 0512/0612 07007KT 5SM -RA BR OVC005
     FM051400 07009KT 2SM RA BR OVC004
     FM052200 14008KT 3SM BR OVC004
     FM060200 21007KT 3SM BR OVC005
     FM060900 VRB05KT 5SM BR BKN015 OVC020=

USA.gov is the U.S. government's official web portal to all federal, state and local government web resources and services.